sensor_id;sensor_type;location;lat;lon;timestamp;pressure;altitude;pressure_sealevel;temperature;humidity
63033;BME280;49121;38.932;-9.018;2023-04-19T00:01:39;111992.50;;;-145.11;37.18
63033;BME280;49121;38.932;-9.018;2023-04-19T00:03:40;111992.50;;;-145.11;36.93
63033;BME280;49121;38.932;-9.018;2023-04-19T00:05:40;111992.50;;;-145.11;37.25
63033;BME280;49121;38.932;-9.018;2023-04-19T00:07:41;111992.50;;;-145.11;37.08
63033;BME280;49121;38.932;-9.018;2023-04-19T00:09:42;111992.50;;;-145.11;37.27
63033;BME280;49121;38.932;-9.018;2023-04-19T00:11:43;111992.50;;;-145.11;37.22
63033;BME280;49121;38.932;-9.018;2023-04-19T00:16:02;111992.50;;;-145.11;37.62
63033;BME280;49121;38.932;-9.018;2023-04-19T00:18:03;111992.50;;;-145.11;37.58
63033;BME280;49121;38.932;-9.018;2023-04-19T00:20:03;111992.50;;;-145.11;37.74
63033;BME280;49121;38.932;-9.018;2023-04-19T00:22:07;111992.50;;;-145.11;37.87
63033;BME280;49121;38.932;-9.018;2023-04-19T00:24:08;111992.50;;;-145.11;38.19
63033;BME280;49121;38.932;-9.018;2023-04-19T00:26:08;111992.50;;;-145.11;38.20
63033;BME280;49121;38.932;-9.018;2023-04-19T00:28:29;111992.50;;;-145.11;38.01
63033;BME280;49121;38.932;-9.018;2023-04-19T00:30:48;111992.50;;;-145.11;38.11
63033;BME280;49121;38.932;-9.018;2023-04-19T00:39:49;111992.50;;;-145.11;37.93
63033;BME280;49121;38.932;-9.018;2023-04-19T00:41:50;111992.50;;;-145.11;37.83
63033;BME280;49121;38.932;-9.018;2023-04-19T00:44:10;111992.50;;;-145.11;38.12
63033;BME280;49121;38.932;-9.018;2023-04-19T00:46:11;111992.50;;;-145.11;37.71
63033;BME280;49121;38.932;-9.018;2023-04-19T00:48:30;111992.50;;;-145.11;37.51
63033;BME280;49121;38.932;-9.018;2023-04-19T00:50:49;111992.50;;;-145.11;37.25
63033;BME280;49121;38.932;-9.018;2023-04-19T00:52:52;111992.50;;;-145.11;37.05
63033;BME280;49121;38.932;-9.018;2023-04-19T00:54:53;111992.50;;;-145.11;36.91
63033;BME280;49121;38.932;-9.018;2023-04-19T00:56:54;111992.50;;;-145.11;36.91
63033;BME280;49121;38.932;-9.018;2023-04-19T00:58:57;111992.50;;;-145.11;37.19
63033;BME280;49121;38.932;-9.018;2023-04-19T01:01:16;111992.50;;;-145.11;37.24
63033;BME280;49121;38.932;-9.018;2023-04-19T01:03:17;111992.50;;;-145.11;37.57
63033;BME280;49121;38.932;-9.018;2023-04-19T01:05:38;111992.50;;;-145.11;37.83
63033;BME280;49121;38.932;-9.018;2023-04-19T01:07:38;111992.50;;;-145.11;37.74
63033;BME280;49121;38.932;-9.018;2023-04-19T01:09:39;111992.50;;;-145.11;38.05
63033;BME280;49121;38.932;-9.018;2023-04-19T01:11:40;111992.50;;;-145.11;38.30
63033;BME280;49121;38.932;-9.018;2023-04-19T01:13:41;111992.50;;;-145.11;38.63
63033;BME280;49121;38.932;-9.018;2023-04-19T01:18:02;111992.50;;;-145.11;38.73
63033;BME280;49121;38.932;-9.018;2023-04-19T01:20:03;111992.50;;;-145.11;39.06
63033;BME280;49121;38.932;-9.018;2023-04-19T01:22:07;111992.50;;;-145.11;38.80
63033;BME280;49121;38.932;-9.018;2023-04-19T01:24:09;111992.50;;;-145.11;39.40
63033;BME280;49121;38.932;-9.018;2023-04-19T01:26:10;111992.50;;;-145.11;39.29
63033;BME280;49121;38.932;-9.018;2023-04-19T01:28:10;111992.50;;;-145.11;39.12
63033;BME280;49121;38.932;-9.018;2023-04-19T01:30:11;111992.50;;;-145.11;39.43
63033;BME280;49121;38.932;-9.018;2023-04-19T01:32:11;111992.50;;;-145.11;38.92
63033;BME280;49121;38.932;-9.018;2023-04-19T01:34:12;111992.50;;;-145.11;38.64
63033;BME280;49121;38.932;-9.018;2023-04-19T01:36:13;111992.50;;;-145.11;38.60
63033;BME280;49121;38.932;-9.018;2023-04-19T01:38:15;111992.50;;;-145.11;38.86
63033;BME280;49121;38.932;-9.018;2023-04-19T01:42:53;111992.50;;;-145.11;38.22
63033;BME280;49121;38.932;-9.018;2023-04-19T01:45:16;111992.50;;;-145.11;37.91
63033;BME280;49121;38.932;-9.018;2023-04-19T01:47:17;111992.50;;;-145.11;37.56
63033;BME280;49121;38.932;-9.018;2023-04-19T01:49:17;111992.50;;;-145.11;37.31
63033;BME280;49121;38.932;-9.018;2023-04-19T01:51:18;111992.50;;;-145.11;37.20
63033;BME280;49121;38.932;-9.018;2023-04-19T01:53:20;111992.50;;;-145.11;37.21
63033;BME280;49121;38.932;-9.018;2023-04-19T01:55:23;111992.50;;;-145.11;37.14
63033;BME280;49121;38.932;-9.018;2023-04-19T01:57:26;111992.50;;;-145.11;37.09
63033;BME280;49121;38.932;-9.018;2023-04-19T01:59:26;111992.50;;;-145.11;36.71
63033;BME280;49121;38.932;-9.018;2023-04-19T02:01:27;111992.50;;;-145.11;36.57
63033;BME280;49121;38.932;-9.018;2023-04-19T02:03:27;111992.50;;;-145.11;36.65
63033;BME280;49121;38.932;-9.018;2023-04-19T02:05:28;111992.50;;;-145.11;36.53
63033;BME280;49121;38.932;-9.018;2023-04-19T02:07:28;111992.50;;;-145.11;36.34
63033;BME280;49121;38.932;-9.018;2023-04-19T02:09:33;111992.50;;;-145.11;36.41
63033;BME280;49121;38.932;-9.018;2023-04-19T02:11:35;111992.50;;;-145.11;36.33
63033;BME280;49121;38.932;-9.018;2023-04-19T02:13:35;111992.50;;;-145.11;36.37
63033;BME280;49121;38.932;-9.018;2023-04-19T02:15:54;111992.50;;;-145.11;36.52
63033;BME280;49121;38.932;-9.018;2023-04-19T02:17:55;111992.50;;;-145.11;36.69
63033;BME280;49121;38.932;-9.018;2023-04-19T02:19:56;111992.50;;;-145.11;36.89
63033;BME280;49121;38.932;-9.018;2023-04-19T02:21:56;111992.50;;;-145.11;36.78
63033;BME280;49121;38.932;-9.018;2023-04-19T02:28:35;111992.50;;;-145.11;36.24
63033;BME280;49121;38.932;-9.018;2023-04-19T02:30:37;111992.50;;;-145.11;36.66
63033;BME280;49121;38.932;-9.018;2023-04-19T02:32:37;111992.50;;;-145.11;37.03
63033;BME280;49121;38.932;-9.018;2023-04-19T02:34:40;111992.50;;;-145.11;37.46
63033;BME280;49121;38.932;-9.018;2023-04-19T02:36:41;111992.50;;;-145.11;37.83
63033;BME280;49121;38.932;-9.018;2023-04-19T02:38:42;111992.50;;;-145.11;37.59
63033;BME280;49121;38.932;-9.018;2023-04-19T02:40:42;111992.50;;;-145.11;37.60
63033;BME280;49121;38.932;-9.018;2023-04-19T02:43:02;111992.50;;;-145.11;38.06
63033;BME280;49121;38.932;-9.018;2023-04-19T02:45:02;111992.50;;;-145.11;38.51
63033;BME280;49121;38.932;-9.018;2023-04-19T02:47:03;111992.50;;;-145.11;38.70
63033;BME280;49121;38.932;-9.018;2023-04-19T02:49:03;111992.50;;;-145.11;38.78
63033;BME280;49121;38.932;-9.018;2023-04-19T02:51:23;111992.50;;;-145.11;38.90
63033;BME280;49121;38.932;-9.018;2023-04-19T02:53:23;111992.50;;;-145.11;38.72
63033;BME280;49121;38.932;-9.018;2023-04-19T02:55:42;111992.50;;;-145.11;38.74
63033;BME280;49121;38.932;-9.018;2023-04-19T02:58:01;111992.50;;;-145.11;39.26
63033;BME280;49121;38.932;-9.018;2023-04-19T03:00:02;111992.50;;;-145.11;39.04
63033;BME280;49121;38.932;-9.018;2023-04-19T03:02:23;111992.50;;;-145.11;38.89
63033;BME280;49121;38.932;-9.018;2023-04-19T03:04:24;111992.50;;;-145.11;39.15
63033;BME280;49121;38.932;-9.018;2023-04-19T03:06:24;111992.50;;;-145.11;39.05
63033;BME280;49121;38.932;-9.018;2023-04-19T03:08:46;111992.50;;;-145.11;38.61
63033;BME280;49121;38.932;-9.018;2023-04-19T03:10:47;111992.50;;;-145.11;38.27
63033;BME280;49121;38.932;-9.018;2023-04-19T03:15:25;111992.50;;;-145.11;38.60
63033;BME280;49121;38.932;-9.018;2023-04-19T03:17:38;111992.50;;;-145.11;39.14
63033;BME280;49121;38.932;-9.018;2023-04-19T03:19:39;111992.50;;;-145.11;39.17
63033;BME280;49121;38.932;-9.018;2023-04-19T03:21:40;111992.50;;;-145.11;39.19
63033;BME280;49121;38.932;-9.018;2023-04-19T03:23:40;111992.50;;;-145.11;39.51
63033;BME280;49121;38.932;-9.018;2023-04-19T03:25:41;111992.50;;;-145.11;39.58
63033;BME280;49121;38.932;-9.018;2023-04-19T03:28:07;111992.50;;;-145.11;40.23
63033;BME280;49121;38.932;-9.018;2023-04-19T03:30:27;111992.50;;;-145.11;40.41
63033;BME280;49121;38.932;-9.018;2023-04-19T03:32:28;111992.50;;;-145.11;40.62
63033;BME280;49121;38.932;-9.018;2023-04-19T03:34:28;111992.50;;;-145.11;40.94
63033;BME280;49121;38.932;-9.018;2023-04-19T03:36:29;111992.50;;;-145.11;40.53
63033;BME280;49121;38.932;-9.018;2023-04-19T03:38:30;111992.50;;;-145.11;40.53
63033;BME280;49121;38.932;-9.018;2023-04-19T03:40:32;111992.50;;;-145.11;40.72
63033;BME280;49121;38.932;-9.018;2023-04-19T03:47:48;111992.50;;;-145.11;41.00
63033;BME280;49121;38.932;-9.018;2023-04-19T03:50:07;111992.50;;;-145.11;41.01
63033;BME280;49121;38.932;-9.018;2023-04-19T03:52:10;111992.50;;;-145.11;41.13
63033;BME280;49121;38.932;-9.018;2023-04-19T03:54:10;111992.50;;;-145.11;41.23
63033;BME280;49121;38.932;-9.018;2023-04-19T04:03:30;111992.50;;;-145.11;41.48
63033;BME280;49121;38.932;-9.018;2023-04-19T04:05:30;111992.50;;;-145.11;41.51
63033;BME280;49121;38.932;-9.018;2023-04-19T04:07:30;111992.50;;;-145.11;41.67
63033;BME280;49121;38.932;-9.018;2023-04-19T04:09:31;111992.50;;;-145.11;41.71
63033;BME280;49121;38.932;-9.018;2023-04-19T04:11:32;111992.50;;;-145.11;41.93
63033;BME280;49121;38.932;-9.018;2023-04-19T04:13:33;111992.50;;;-145.11;42.02
63033;BME280;49121;38.932;-9.018;2023-04-19T04:15:44;111992.50;;;-145.11;41.87
63033;BME280;49121;38.932;-9.018;2023-04-19T04:17:46;111992.50;;;-145.11;42.21
63033;BME280;49121;38.932;-9.018;2023-04-19T04:19:46;111992.50;;;-145.11;42.67
63033;BME280;49121;38.932;-9.018;2023-04-19T04:21:47;111992.50;;;-145.11;43.09
63033;BME280;49121;38.932;-9.018;2023-04-19T04:23:49;111992.50;;;-145.11;43.38
63033;BME280;49121;38.932;-9.018;2023-04-19T04:26:02;111992.50;;;-145.11;43.27
63033;BME280;49121;38.932;-9.018;2023-04-19T04:28:24;111992.50;;;-145.11;43.48
63033;BME280;49121;38.932;-9.018;2023-04-19T04:30:26;111992.50;;;-145.11;43.47
63033;BME280;49121;38.932;-9.018;2023-04-19T04:32:29;111992.50;;;-145.11;43.28
63033;BME280;49121;38.932;-9.018;2023-04-19T04:34:34;111992.50;;;-145.11;43.36
63033;BME280;49121;38.932;-9.018;2023-04-19T04:36:40;111992.50;;;-145.11;43.75
63033;BME280;49121;38.932;-9.018;2023-04-19T04:38:41;111992.50;;;-145.11;43.77
63033;BME280;49121;38.932;-9.018;2023-04-19T04:40:42;111992.50;;;-145.11;44.00
63033;BME280;49121;38.932;-9.018;2023-04-19T04:42:42;111992.50;;;-145.11;44.29
63033;BME280;49121;38.932;-9.018;2023-04-19T04:44:44;111992.50;;;-145.11;44.41
63033;BME280;49121;38.932;-9.018;2023-04-19T04:46:46;111992.50;;;-145.11;44.13
63033;BME280;49121;38.932;-9.018;2023-04-19T04:48:52;111992.50;;;-145.11;44.18
63033;BME280;49121;38.932;-9.018;2023-04-19T04:50:53;111992.50;;;-145.11;44.42
63033;BME280;49121;38.932;-9.018;2023-04-19T04:52:54;111992.50;;;-145.11;45.03
63033;BME280;49121;38.932;-9.018;2023-04-19T04:55:00;111992.50;;;-145.11;44.93
63033;BME280;49121;38.932;-9.018;2023-04-19T04:57:10;111992.50;;;-145.11;44.87
63033;BME280;49121;38.932;-9.018;2023-04-19T04:59:11;111992.50;;;-145.11;44.83
63033;BME280;49121;38.932;-9.018;2023-04-19T05:01:16;111992.50;;;-145.11;44.84
63033;BME280;49121;38.932;-9.018;2023-04-19T05:03:19;111992.50;;;-145.11;44.65
63033;BME280;49121;38.932;-9.018;2023-04-19T05:05:26;111992.50;;;-145.11;44.67
63033;BME280;49121;38.932;-9.018;2023-04-19T05:07:26;111992.50;;;-145.11;44.36
63033;BME280;49121;38.932;-9.018;2023-04-19T05:09:27;111992.50;;;-145.11;44.51
63033;BME280;49121;38.932;-9.018;2023-04-19T05:11:27;111992.50;;;-145.11;44.73
63033;BME280;49121;38.932;-9.018;2023-04-19T05:13:28;111992.50;;;-145.11;45.07
63033;BME280;49121;38.932;-9.018;2023-04-19T05:15:46;111992.50;;;-145.11;45.59
63033;BME280;49121;38.932;-9.018;2023-04-19T05:17:47;111992.50;;;-145.11;45.25
63033;BME280;49121;38.932;-9.018;2023-04-19T05:19:48;111992.50;;;-145.11;45.13
63033;BME280;49121;38.932;-9.018;2023-04-19T05:21:49;111992.50;;;-145.11;45.34
63033;BME280;49121;38.932;-9.018;2023-04-19T05:23:50;111992.50;;;-145.11;45.47
63033;BME280;49121;38.932;-9.018;2023-04-19T05:25:56;111992.50;;;-145.11;45.62
63033;BME280;49121;38.932;-9.018;2023-04-19T05:27:59;111992.50;;;-145.11;45.51
63033;BME280;49121;38.932;-9.018;2023-04-19T05:30:19;111992.50;;;-145.11;45.66
63033;BME280;49121;38.932;-9.018;2023-04-19T05:32:19;111992.50;;;-145.11;45.69
63033;BME280;49121;38.932;-9.018;2023-04-19T05:34:27;111992.50;;;-145.11;45.96
63033;BME280;49121;38.932;-9.018;2023-04-19T05:36:30;111992.50;;;-145.11;45.99
63033;BME280;49121;38.932;-9.018;2023-04-19T05:38:31;111992.50;;;-145.11;45.64
63033;BME280;49121;38.932;-9.018;2023-04-19T05:40:35;111992.50;;;-145.11;45.73
63033;BME280;49121;38.932;-9.018;2023-04-19T05:42:36;111992.50;;;-145.11;45.93
63033;BME280;49121;38.932;-9.018;2023-04-19T05:44:37;111992.50;;;-145.11;45.82
63033;BME280;49121;38.932;-9.018;2023-04-19T05:46:38;111992.50;;;-145.11;45.04
63033;BME280;49121;38.932;-9.018;2023-04-19T05:48:40;111992.50;;;-145.11;44.20
63033;BME280;49121;38.932;-9.018;2023-04-19T05:51:03;111992.50;;;-145.11;44.29
63033;BME280;49121;38.932;-9.018;2023-04-19T05:53:19;111992.50;;;-145.11;44.65
63033;BME280;49121;38.932;-9.018;2023-04-19T05:55:20;111992.50;;;-145.11;44.73
63033;BME280;49121;38.932;-9.018;2023-04-19T05:57:20;111992.50;;;-145.11;44.73
63033;BME280;49121;38.932;-9.018;2023-04-19T05:59:21;111992.50;;;-145.11;44.36
63033;BME280;49121;38.932;-9.018;2023-04-19T06:01:22;111992.50;;;-145.11;44.62
63033;BME280;49121;38.932;-9.018;2023-04-19T06:03:23;111992.50;;;-145.11;44.53
63033;BME280;49121;38.932;-9.018;2023-04-19T06:05:24;111992.50;;;-145.11;43.65
63033;BME280;49121;38.932;-9.018;2023-04-19T06:07:24;111992.50;;;-145.11;43.01
63033;BME280;49121;38.932;-9.018;2023-04-19T06:09:25;111992.50;;;-145.11;43.94
63033;BME280;49121;38.932;-9.018;2023-04-19T06:13:45;111992.50;;;-145.11;43.22
63033;BME280;49121;38.932;-9.018;2023-04-19T06:15:46;111992.50;;;-145.11;43.88
63033;BME280;49121;38.932;-9.018;2023-04-19T06:17:46;111992.50;;;-145.11;43.43
63033;BME280;49121;38.932;-9.018;2023-04-19T06:19:47;111992.50;;;-145.11;43.27
63033;BME280;49121;38.932;-9.018;2023-04-19T06:21:47;111992.50;;;-145.11;43.30
63033;BME280;49121;38.932;-9.018;2023-04-19T06:24:07;111992.50;;;-145.11;43.48
63033;BME280;49121;38.932;-9.018;2023-04-19T06:26:07;111992.50;;;-145.11;43.80
63033;BME280;49121;38.932;-9.018;2023-04-19T06:28:08;111992.50;;;-145.11;43.45
63033;BME280;49121;38.932;-9.018;2023-04-19T06:30:08;111992.50;;;-145.11;43.43
63033;BME280;49121;38.932;-9.018;2023-04-19T06:32:09;111992.50;;;-145.11;43.75
63033;BME280;49121;38.932;-9.018;2023-04-19T06:34:10;111992.50;;;-145.11;44.44
63033;BME280;49121;38.932;-9.018;2023-04-19T06:36:10;111992.50;;;-145.11;44.42
63033;BME280;49121;38.932;-9.018;2023-04-19T06:38:29;111992.50;;;-145.11;44.35
63033;BME280;49121;38.932;-9.018;2023-04-19T06:40:30;111992.50;;;-145.11;44.76
63033;BME280;49121;38.932;-9.018;2023-04-19T06:42:30;111992.50;;;-145.11;45.16
63033;BME280;49121;38.932;-9.018;2023-04-19T06:44:31;111992.50;;;-145.11;45.35
63033;BME280;49121;38.932;-9.018;2023-04-19T06:46:31;111992.50;;;-145.11;44.95
63033;BME280;49121;38.932;-9.018;2023-04-19T06:48:32;111992.50;;;-145.11;44.39
63033;BME280;49121;38.932;-9.018;2023-04-19T06:50:33;111992.50;;;-145.11;41.22
63033;BME280;49121;38.932;-9.018;2023-04-19T06:52:33;111992.50;;;-145.11;38.39
63033;BME280;49121;38.932;-9.018;2023-04-19T06:54:34;111992.50;;;-145.11;35.96
63033;BME280;49121;38.932;-9.018;2023-04-19T06:56:38;111992.50;;;-145.11;34.57
63033;BME280;49121;38.932;-9.018;2023-04-19T06:58:40;111992.50;;;-145.11;32.98
63033;BME280;49121;38.932;-9.018;2023-04-19T07:00:40;111992.50;;;-145.11;32.78
63033;BME280;49121;38.932;-9.018;2023-04-19T07:02:41;111992.50;;;-145.11;32.04
63033;BME280;49121;38.932;-9.018;2023-04-19T07:05:00;111992.50;;;-145.11;30.68
63033;BME280;49121;38.932;-9.018;2023-04-19T07:07:00;111992.50;;;-145.11;31.43
63033;BME280;49121;38.932;-9.018;2023-04-19T07:09:01;111992.50;;;-145.11;31.97
63033;BME280;49121;38.932;-9.018;2023-04-19T07:11:03;111992.50;;;-145.11;34.00
63033;BME280;49121;38.932;-9.018;2023-04-19T07:13:04;111992.50;;;-145.11;36.28
63033;BME280;49121;38.932;-9.018;2023-04-19T07:15:05;111992.50;;;-145.11;35.75
63033;BME280;49121;38.932;-9.018;2023-04-19T07:17:05;111992.50;;;-145.11;34.54
63033;BME280;49121;38.932;-9.018;2023-04-19T07:19:06;111992.50;;;-145.11;34.33
63033;BME280;49121;38.932;-9.018;2023-04-19T07:21:06;111992.50;;;-145.11;33.79
63033;BME280;49121;38.932;-9.018;2023-04-19T07:23:07;111992.50;;;-145.11;34.18
63033;BME280;49121;38.932;-9.018;2023-04-19T07:25:07;111992.50;;;-145.11;33.54
63033;BME280;49121;38.932;-9.018;2023-04-19T07:27:08;111992.50;;;-145.11;33.85
63033;BME280;49121;38.932;-9.018;2023-04-19T07:29:08;111992.50;;;-145.11;35.17
63033;BME280;49121;38.932;-9.018;2023-04-19T07:31:28;111992.50;;;-145.11;33.97
63033;BME280;49121;38.932;-9.018;2023-04-19T07:33:28;111992.50;;;-145.11;35.87
63033;BME280;49121;38.932;-9.018;2023-04-19T07:35:29;111992.50;;;-145.11;34.35
63033;BME280;49121;38.932;-9.018;2023-04-19T07:37:30;111992.50;;;-145.11;33.81
63033;BME280;49121;38.932;-9.018;2023-04-19T07:39:30;111992.50;;;-145.11;33.30
63033;BME280;49121;38.932;-9.018;2023-04-19T07:41:31;111992.50;;;-145.11;33.78
63033;BME280;49121;38.932;-9.018;2023-04-19T07:43:31;111992.50;;;-145.11;34.12
63033;BME280;49121;38.932;-9.018;2023-04-19T07:45:32;111992.50;;;-145.11;34.51
63033;BME280;49121;38.932;-9.018;2023-04-19T07:47:32;111992.50;;;-145.11;33.53
63033;BME280;49121;38.932;-9.018;2023-04-19T07:49:33;111992.50;;;-145.11;33.42
63033;BME280;49121;38.932;-9.018;2023-04-19T07:51:33;111992.50;;;-145.11;33.12
63033;BME280;49121;38.932;-9.018;2023-04-19T07:53:34;111992.50;;;-145.11;32.35
63033;BME280;49121;38.932;-9.018;2023-04-19T07:55:34;111992.50;;;-145.11;31.39
63033;BME280;49121;38.932;-9.018;2023-04-19T08:00:13;111992.50;;;-145.11;32.41
63033;BME280;49121;38.932;-9.018;2023-04-19T08:02:16;111992.50;;;-145.11;31.90
63033;BME280;49121;38.932;-9.018;2023-04-19T08:04:18;111992.50;;;-145.11;32.48
63033;BME280;49121;38.932;-9.018;2023-04-19T08:06:19;111992.50;;;-145.11;31.77
63033;BME280;49121;38.932;-9.018;2023-04-19T08:10:59;111992.50;;;-145.11;30.71
63033;BME280;49121;38.932;-9.018;2023-04-19T08:13:02;111992.50;;;-145.11;30.17
63033;BME280;49121;38.932;-9.018;2023-04-19T08:15:05;111992.50;;;-145.11;29.91
63033;BME280;49121;38.932;-9.018;2023-04-19T08:17:06;111992.50;;;-145.11;29.88
63033;BME280;49121;38.932;-9.018;2023-04-19T08:21:25;111992.50;;;-145.11;30.87
63033;BME280;49121;38.932;-9.018;2023-04-19T08:23:44;111992.50;;;-145.11;30.89
63033;BME280;49121;38.932;-9.018;2023-04-19T08:28:23;111992.50;;;-145.11;30.78
63033;BME280;49121;38.932;-9.018;2023-04-19T08:30:24;111992.50;;;-145.11;30.24
63033;BME280;49121;38.932;-9.018;2023-04-19T08:32:24;111992.50;;;-145.11;30.21
63033;BME280;49121;38.932;-9.018;2023-04-19T08:34:25;111992.50;;;-145.11;29.67
63033;BME280;49121;38.932;-9.018;2023-04-19T08:36:25;111992.50;;;-145.11;30.20
63033;BME280;49121;38.932;-9.018;2023-04-19T08:38:28;111992.50;;;-145.11;29.54
63033;BME280;49121;38.932;-9.018;2023-04-19T08:40:29;111992.50;;;-145.11;29.56
63033;BME280;49121;38.932;-9.018;2023-04-19T08:42:30;111992.50;;;-145.11;29.25
63033;BME280;49121;38.932;-9.018;2023-04-19T08:44:31;111992.50;;;-145.11;28.74
63033;BME280;49121;38.932;-9.018;2023-04-19T08:46:32;111992.50;;;-145.11;28.68
63033;BME280;49121;38.932;-9.018;2023-04-19T08:48:33;111992.50;;;-145.11;29.45
63033;BME280;49121;38.932;-9.018;2023-04-19T08:50:35;111992.50;;;-145.11;29.19
63033;BME280;49121;38.932;-9.018;2023-04-19T08:52:37;111992.50;;;-145.11;29.34
63033;BME280;49121;38.932;-9.018;2023-04-19T08:59:35;111992.50;;;-145.11;28.77
63033;BME280;49121;38.932;-9.018;2023-04-19T09:01:35;111992.50;;;-145.11;29.17
63033;BME280;49121;38.932;-9.018;2023-04-19T09:03:41;111992.50;;;-145.11;28.75
63033;BME280;49121;38.932;-9.018;2023-04-19T09:05:46;111992.50;;;-145.11;29.29
63033;BME280;49121;38.932;-9.018;2023-04-19T09:07:47;111992.50;;;-145.11;29.10
63033;BME280;49121;38.932;-9.018;2023-04-19T09:09:47;111992.50;;;-145.11;28.90
63033;BME280;49121;38.932;-9.018;2023-04-19T09:12:12;111992.50;;;-145.11;28.38
63033;BME280;49121;38.932;-9.018;2023-04-19T09:14:15;111992.50;;;-145.11;29.13
63033;BME280;49121;38.932;-9.018;2023-04-19T09:16:25;111992.50;;;-145.11;28.91
63033;BME280;49121;38.932;-9.018;2023-04-19T09:18:26;111992.50;;;-145.11;28.81
63033;BME280;49121;38.932;-9.018;2023-04-19T09:20:34;111992.50;;;-145.11;28.52
63033;BME280;49121;38.932;-9.018;2023-04-19T09:22:35;111992.50;;;-145.11;28.94
63033;BME280;49121;38.932;-9.018;2023-04-19T09:24:38;111992.50;;;-145.11;29.90
63033;BME280;49121;38.932;-9.018;2023-04-19T09:26:39;111992.50;;;-145.11;29.80
63033;BME280;49121;38.932;-9.018;2023-04-19T09:28:56;111992.50;;;-145.11;28.95
63033;BME280;49121;38.932;-9.018;2023-04-19T09:30:57;111992.50;;;-145.11;28.96
63033;BME280;49121;38.932;-9.018;2023-04-19T09:32:58;111992.50;;;-145.11;28.84
63033;BME280;49121;38.932;-9.018;2023-04-19T09:34:58;111992.50;;;-145.11;28.55
63033;BME280;49121;38.932;-9.018;2023-04-19T09:37:12;111992.50;;;-145.11;29.07
63033;BME280;49121;38.932;-9.018;2023-04-19T09:41:31;111992.50;;;-145.11;29.13
63033;BME280;49121;38.932;-9.018;2023-04-19T09:43:33;111992.50;;;-145.11;29.07
63033;BME280;49121;38.932;-9.018;2023-04-19T09:45:43;111992.50;;;-145.11;28.62
63033;BME280;49121;38.932;-9.018;2023-04-19T09:47:44;111992.50;;;-145.11;28.81
63033;BME280;49121;38.932;-9.018;2023-04-19T09:49:44;111992.50;;;-145.11;28.41
63033;BME280;49121;38.932;-9.018;2023-04-19T09:51:46;111992.50;;;-145.11;28.77
63033;BME280;49121;38.932;-9.018;2023-04-19T09:53:46;111992.50;;;-145.11;28.72
63033;BME280;49121;38.932;-9.018;2023-04-19T09:55:48;111992.50;;;-145.11;29.00
63033;BME280;49121;38.932;-9.018;2023-04-19T09:57:48;111992.50;;;-145.11;28.58
63033;BME280;49121;38.932;-9.018;2023-04-19T09:59:49;111992.50;;;-145.11;28.83
63033;BME280;49121;38.932;-9.018;2023-04-19T10:01:53;111992.50;;;-145.11;28.89
63033;BME280;49121;38.932;-9.018;2023-04-19T10:03:54;111992.50;;;-145.11;28.50
63033;BME280;49121;38.932;-9.018;2023-04-19T10:05:55;111992.50;;;-145.11;28.52
63033;BME280;49121;38.932;-9.018;2023-04-19T10:07:56;111992.50;;;-145.11;28.53
63033;BME280;49121;38.932;-9.018;2023-04-19T10:09:58;111992.50;;;-145.11;27.94
63033;BME280;49121;38.932;-9.018;2023-04-19T10:11:59;111992.50;;;-145.11;27.44
63033;BME280;49121;38.932;-9.018;2023-04-19T10:14:00;111992.50;;;-145.11;25.69
63033;BME280;49121;38.932;-9.018;2023-04-19T10:18:34;111992.50;;;-145.11;24.01
63033;BME280;49121;38.932;-9.018;2023-04-19T10:20:41;111992.50;;;-145.11;24.35
63033;BME280;49121;38.932;-9.018;2023-04-19T10:22:46;111992.50;;;-145.11;24.07
63033;BME280;49121;38.932;-9.018;2023-04-19T10:27:10;111992.50;;;-145.11;25.37
63033;BME280;49121;38.932;-9.018;2023-04-19T10:29:11;111992.50;;;-145.11;26.12
63033;BME280;49121;38.932;-9.018;2023-04-19T10:31:12;111992.50;;;-145.11;26.16
63033;BME280;49121;38.932;-9.018;2023-04-19T10:33:12;111992.50;;;-145.11;26.28
63033;BME280;49121;38.932;-9.018;2023-04-19T10:35:24;111992.50;;;-145.11;27.30
63033;BME280;49121;38.932;-9.018;2023-04-19T10:37:25;111992.50;;;-145.11;27.38
63033;BME280;49121;38.932;-9.018;2023-04-19T10:39:42;111992.50;;;-145.11;27.40
63033;BME280;49121;38.932;-9.018;2023-04-19T10:41:55;111992.50;;;-145.11;27.39
63033;BME280;49121;38.932;-9.018;2023-04-19T10:46:01;111992.50;;;-145.11;27.71
63033;BME280;49121;38.932;-9.018;2023-04-19T10:48:05;111992.50;;;-145.11;28.08
63033;BME280;49121;38.932;-9.018;2023-04-19T10:50:06;111992.50;;;-145.11;27.52
63033;BME280;49121;38.932;-9.018;2023-04-19T10:52:08;111992.50;;;-145.11;27.81
63033;BME280;49121;38.932;-9.018;2023-04-19T10:54:31;111992.50;;;-145.11;28.28
63033;BME280;49121;38.932;-9.018;2023-04-19T11:01:28;111992.50;;;-145.11;25.76
63033;BME280;49121;38.932;-9.018;2023-04-19T11:03:55;111992.50;;;-145.11;27.34
63033;BME280;49121;38.932;-9.018;2023-04-19T11:07:58;111992.50;;;-145.11;28.31
63033;BME280;49121;38.932;-9.018;2023-04-19T11:09:58;111992.50;;;-145.11;27.85
63033;BME280;49121;38.932;-9.018;2023-04-19T11:12:00;111992.50;;;-145.11;27.85
63033;BME280;49121;38.932;-9.018;2023-04-19T11:14:01;111992.50;;;-145.11;27.87
63033;BME280;49121;38.932;-9.018;2023-04-19T11:16:12;111992.50;;;-145.11;28.52
63033;BME280;49121;38.932;-9.018;2023-04-19T11:18:17;111992.50;;;-145.11;28.82
63033;BME280;49121;38.932;-9.018;2023-04-19T11:20:20;111992.50;;;-145.11;28.93
63033;BME280;49121;38.932;-9.018;2023-04-19T11:22:35;111992.50;;;-145.11;28.84
63033;BME280;49121;38.932;-9.018;2023-04-19T11:24:36;111992.50;;;-145.11;28.40
63033;BME280;49121;38.932;-9.018;2023-04-19T11:28:55;111992.50;;;-145.11;29.81
63033;BME280;49121;38.932;-9.018;2023-04-19T11:30:56;111992.50;;;-145.11;28.98
63033;BME280;49121;38.932;-9.018;2023-04-19T11:32:56;111992.50;;;-145.11;28.11